createdAt,value
2018-03-01T00:00:55.144Z,51.30
2018-03-01T00:03:22.624Z,51.24
2018-03-01T00:05:50.155Z,51.63
2018-03-01T00:08:17.613Z,51.89
2018-03-01T00:10:45.192Z,51.88
2018-03-01T00:13:12.674Z,51.75
2018-03-01T00:15:40.155Z,52.15
2018-03-01T00:18:07.678Z,52.23
2018-03-01T00:20:35.128Z,52.19
2018-03-01T00:23:02.618Z,52.14
2018-03-01T00:25:30.101Z,52.42
2018-03-01T00:27:57.565Z,52.34
2018-03-01T00:30:25.084Z,52.67
2018-03-01T00:32:52.584Z,52.62
2018-03-01T00:35:20.042Z,52.47
2018-03-01T00:37:47.502Z,52.82
2018-03-01T00:40:15.080Z,52.91
2018-03-01T00:42:42.525Z,53.03
2018-03-01T00:45:10.076Z,52.64
2018-03-01T00:47:37.568Z,52.88
2018-03-01T00:50:05.020Z,52.96
2018-03-01T00:52:32.502Z,53.18
2018-03-01T00:55:00.333Z,53.20
2018-03-01T00:57:27.804Z,53.27
2018-03-01T00:59:55.268Z,53.61
2018-03-01T01:02:22.745Z,53.42
2018-03-01T01:04:55.213Z,53.47
2018-03-01T01:07:22.658Z,53.46
2018-03-01T01:09:50.156Z,53.52
2018-03-01T01:12:17.641Z,53.69
2018-03-01T01:14:45.104Z,53.98
2018-03-01T01:17:12.553Z,53.91
2018-03-01T01:19:40.094Z,53.97
2018-03-01T01:22:07.534Z,53.99
2018-03-01T01:24:34.997Z,54.22
2018-03-01T01:27:02.465Z,54.59
2018-03-01T01:29:29.979Z,54.69
2018-03-01T01:31:57.435Z,54.68
2018-03-01T01:34:24.902Z,54.72
2018-03-01T01:36:52.352Z,54.77
2018-03-01T01:39:19.891Z,54.76
2018-03-01T01:41:47.398Z,54.58
2018-03-01T01:44:14.917Z,54.93
2018-03-01T01:46:42.370Z,54.81
2018-03-01T01:49:09.820Z,54.78
2018-03-01T01:51:37.316Z,54.87
2018-03-01T01:54:04.845Z,54.98
2018-03-01T01:56:32.303Z,54.93
2018-03-01T01:58:59.747Z,55.11
2018-03-01T02:01:27.269Z,55.02
2018-03-01T02:03:54.726Z,55.25
2018-03-01T02:06:22.218Z,54.96
2018-03-01T02:08:49.702Z,55.21
2018-03-01T02:11:17.173Z,55.33
2018-03-01T02:13:45.253Z,54.91
2018-03-01T02:16:13.654Z,55.12
2018-03-01T02:18:41.188Z,55.02
2018-03-01T02:21:08.704Z,55.21
2018-03-01T02:23:36.201Z,55.93
2018-03-01T02:26:04.791Z,55.47
2018-03-01T02:28:32.329Z,55.81
2018-03-01T02:31:01.916Z,55.77
2018-03-01T02:33:30.908Z,56.03
2018-03-01T02:36:03.372Z,56.21
2018-03-01T02:38:31.624Z,56.51
2018-03-01T02:40:59.118Z,56.50
2018-03-01T02:43:26.614Z,56.44
2018-03-01T02:45:55.580Z,56.57
2018-03-01T02:48:23.115Z,56.33
2018-03-01T02:50:50.652Z,56.29
2018-03-01T02:53:18.180Z,56.33
2018-03-01T02:55:45.711Z,56.27
2018-03-01T02:58:13.216Z,56.49
2018-03-01T03:00:40.727Z,56.32
2018-03-01T03:03:08.215Z,56.50
2018-03-01T03:05:35.729Z,56.38
2018-03-01T03:08:03.224Z,56.80
2018-03-01T03:10:31.521Z,56.86
2018-03-01T03:12:59.017Z,57.15
2018-03-01T03:15:26.523Z,57.33
2018-03-01T03:17:54.065Z,57.37
2018-03-01T03:20:21.558Z,56.94
2018-03-01T03:22:49.886Z,57.02
2018-03-01T03:25:17.392Z,57.22
2018-03-01T03:27:46.591Z,57.72
2018-03-01T03:30:14.092Z,57.37
2018-03-01T03:32:42.608Z,57.59
2018-03-01T03:35:10.153Z,57.41
2018-03-01T03:37:37.672Z,57.53
2018-03-01T03:40:05.185Z,57.72
2018-03-01T03:42:32.687Z,57.82
2018-03-01T03:45:00.186Z,58.03
2018-03-01T03:47:27.705Z,57.85
2018-03-01T03:49:55.192Z,57.85
2018-03-01T03:52:23.925Z,58.11
2018-03-01T03:54:51.461Z,58.11
2018-03-01T03:57:18.973Z,58.42
2018-03-01T03:59:46.459Z,58.54
2018-03-01T04:02:15.185Z,58.59
2018-03-01T04:04:43.505Z,58.62
2018-03-01T04:07:10.993Z,58.77
2018-03-01T04:09:38.523Z,58.85
2018-03-01T04:12:06.014Z,58.88
2018-03-01T04:14:33.525Z,59.04
2018-03-01T04:17:01.086Z,59.42
2018-03-01T04:19:28.589Z,59.44
2018-03-01T04:21:56.101Z,59.54
2018-03-01T04:24:23.609Z,59.82
2018-03-01T04:26:51.098Z,59.96
2018-03-01T04:29:18.588Z,59.74
2018-03-01T04:31:46.153Z,60.18
2018-03-01T04:34:14.360Z,60.04
2018-03-01T04:36:41.901Z,60.68
2018-03-01T04:39:09.385Z,60.98
2018-03-01T04:41:36.833Z,60.94
2018-03-01T04:44:04.305Z,60.73
2018-03-01T04:46:31.764Z,60.87
2018-03-01T04:48:59.239Z,60.79
2018-03-01T04:51:26.695Z,60.88
2018-03-01T04:53:54.154Z,60.75
2018-03-01T04:56:21.634Z,60.65
2018-03-01T04:58:49.105Z,61.07
2018-03-01T05:01:16.551Z,61.24
2018-03-01T05:03:43.991Z,61.07
2018-03-01T05:06:11.437Z,61.56
2018-03-01T05:08:38.936Z,61.35
2018-03-01T05:11:06.366Z,61.68
2018-03-01T05:13:33.840Z,61.28
2018-03-01T05:16:01.347Z,61.36
2018-03-01T05:18:28.803Z,61.21
2018-03-01T05:20:56.285Z,61.18
2018-03-01T05:23:23.750Z,61.32
2018-03-01T05:25:51.190Z,61.23
2018-03-01T05:28:18.679Z,61.42
2018-03-01T05:30:46.243Z,61.86
2018-03-01T05:33:13.704Z,61.83
2018-03-01T05:35:42.518Z,61.60
2018-03-01T05:38:10.033Z,61.66
2018-03-01T05:40:37.555Z,62.08
2018-03-01T05:43:05.039Z,61.78
2018-03-01T05:45:32.542Z,61.80
2018-03-01T05:48:00.075Z,61.67
2018-03-01T05:50:27.624Z,61.79
2018-03-01T05:52:55.885Z,62.07
2018-03-01T05:55:23.445Z,62.03
2018-03-01T05:57:50.983Z,62.26
2018-03-01T06:00:19.539Z,62.48
2018-03-01T06:02:48.091Z,62.49
2018-03-01T06:05:17.401Z,62.50
2018-03-01T06:07:44.912Z,62.65
2018-03-01T06:10:12.383Z,62.69
2018-03-01T06:12:39.915Z,62.82
2018-03-01T06:15:07.405Z,63.11
2018-03-01T06:17:34.851Z,63.25
2018-03-01T06:20:02.335Z,63.26
2018-03-01T06:22:29.785Z,63.04
2018-03-01T06:24:57.257Z,63.24
2018-03-01T06:27:24.719Z,63.32
2018-03-01T06:29:52.169Z,63.70
2018-03-01T06:32:19.648Z,65.81
2018-03-01T06:34:47.131Z,71.80
2018-03-01T06:37:14.602Z,65.83
2018-03-01T06:39:42.080Z,63.48
2018-03-01T06:42:09.551Z,63.11
2018-03-01T06:44:37.005Z,62.95
2018-03-01T06:47:04.453Z,63.29
2018-03-01T06:49:31.901Z,62.90
2018-03-01T06:51:59.442Z,63.10
2018-03-01T06:54:26.919Z,63.31
2018-03-01T06:56:54.377Z,63.15
2018-03-01T06:59:21.850Z,63.17
2018-03-01T07:01:49.298Z,63.44
2018-03-01T07:04:16.760Z,63.48
2018-03-01T07:06:44.226Z,63.54
2018-03-01T07:09:11.688Z,63.30
2018-03-01T07:11:39.151Z,63.05
2018-03-01T07:14:11.687Z,63.08
2018-03-01T07:16:39.211Z,62.62
2018-03-01T07:19:06.677Z,62.55
2018-03-01T07:21:34.155Z,62.03
2018-03-01T07:24:02.210Z,61.99
2018-03-01T07:26:29.707Z,61.75
2018-03-01T07:28:57.195Z,61.84
2018-03-01T07:31:24.677Z,62.13
2018-03-01T07:33:52.169Z,61.93
2018-03-01T07:36:19.669Z,61.63
2018-03-01T07:38:47.208Z,61.29
2018-03-01T07:41:14.668Z,60.96
2018-03-01T07:43:42.183Z,60.55
2018-03-01T07:46:09.682Z,60.25
2018-03-01T07:48:37.154Z,60.30
2018-03-01T07:51:04.628Z,60.30
2018-03-01T07:53:32.110Z,60.32
2018-03-01T07:55:59.573Z,59.92
2018-03-01T07:58:27.055Z,59.49
2018-03-01T08:00:54.567Z,59.22
2018-03-01T08:03:22.091Z,59.36
2018-03-01T08:05:49.612Z,59.19
2018-03-01T08:08:17.047Z,58.90
2018-03-01T08:10:44.521Z,58.80
2018-03-01T08:13:11.976Z,58.40
2018-03-01T08:15:39.432Z,57.86
2018-03-01T08:18:07.685Z,57.42
2018-03-01T08:20:35.153Z,57.15
2018-03-01T08:23:02.667Z,56.71
2018-03-01T08:25:35.101Z,56.58
2018-03-01T08:28:02.565Z,56.15
2018-03-01T08:30:30.064Z,55.72
2018-03-01T08:32:57.556Z,55.31
2018-03-01T08:35:25.015Z,54.88
2018-03-01T08:37:52.487Z,54.39
2018-03-01T08:40:20.021Z,54.27
2018-03-01T08:42:47.508Z,54.42
2018-03-01T08:45:14.987Z,54.24
2018-03-01T08:47:42.493Z,54.33
2018-03-01T08:50:09.952Z,54.51
2018-03-01T08:52:42.326Z,54.23
2018-03-01T08:55:15.453Z,53.93
2018-03-01T08:57:42.995Z,53.65
2018-03-01T09:00:10.476Z,53.86
2018-03-01T09:02:38.873Z,53.90
2018-03-01T09:05:12.284Z,53.70
2018-03-01T09:07:39.806Z,53.28
2018-03-01T09:10:07.349Z,52.71
2018-03-01T09:12:36.010Z,52.20
2018-03-01T09:15:03.672Z,51.37
2018-03-01T09:17:31.644Z,50.16
2018-03-01T09:19:59.321Z,48.65
2018-03-01T09:22:27.077Z,46.28
2018-03-01T09:24:54.654Z,44.29
2018-03-01T09:27:22.216Z,42.05
2018-03-01T09:29:49.858Z,39.13
2018-03-01T09:32:17.555Z,36.84
2018-03-01T09:34:46.212Z,34.79
2018-03-01T09:37:13.850Z,33.45
2018-03-01T09:39:41.523Z,31.96
2018-03-01T09:42:09.105Z,31.66
2018-03-01T09:44:36.693Z,31.14
2018-03-01T09:47:04.516Z,31.00
2018-03-01T09:49:32.179Z,31.15
2018-03-01T09:51:59.682Z,29.79
2018-03-01T09:54:27.148Z,28.89
2018-03-01T09:56:54.661Z,26.71
2018-03-01T09:59:22.238Z,25.05
2018-03-01T10:01:49.724Z,24.19
2018-03-01T10:04:17.213Z,25.30
2018-03-01T10:06:44.770Z,25.59
2018-03-01T10:09:12.243Z,25.06
2018-03-01T10:11:39.719Z,26.04
2018-03-01T10:14:07.394Z,24.05
2018-03-01T10:16:34.931Z,22.29
2018-03-01T10:19:02.520Z,21.46
2018-03-01T10:21:30.019Z,21.33
2018-03-01T10:23:57.605Z,20.52
2018-03-01T10:26:25.077Z,21.89
2018-03-01T10:28:52.524Z,21.67
2018-03-01T10:31:19.997Z,20.84
2018-03-01T10:33:47.485Z,20.25
2018-03-01T10:36:14.985Z,20.80
2018-03-01T10:38:42.541Z,20.64
2018-03-01T10:41:10.023Z,22.01
2018-03-01T10:43:37.493Z,21.57
2018-03-01T10:46:05.761Z,21.82
2018-03-01T10:48:33.209Z,22.10
2018-03-01T10:51:00.718Z,23.30
2018-03-01T10:53:28.192Z,23.59
2018-03-01T10:55:55.699Z,24.18
2018-03-01T10:58:23.176Z,25.75
2018-03-01T11:00:56.151Z,27.82
2018-03-01T11:03:23.653Z,28.15
2018-03-01T11:05:51.120Z,28.42
2018-03-01T11:08:18.565Z,28.04
2018-03-01T11:10:46.110Z,28.96
2018-03-01T11:13:13.569Z,29.65
2018-03-01T11:15:41.472Z,30.22
2018-03-01T11:18:08.959Z,29.77
2018-03-01T11:20:36.525Z,30.37
2018-03-01T11:23:04.094Z,31.77
2018-03-01T11:25:31.628Z,31.87
2018-03-01T11:27:59.114Z,32.78
2018-03-01T11:30:26.662Z,33.07
2018-03-01T11:32:55.006Z,33.32
2018-03-01T11:35:22.563Z,32.21
2018-03-01T11:37:50.008Z,32.29
2018-03-01T11:40:17.550Z,32.73
2018-03-01T11:42:45.008Z,32.21
2018-03-01T11:45:12.484Z,32.09
2018-03-01T11:47:40.001Z,32.11
2018-03-01T11:50:07.540Z,30.99
2018-03-01T11:52:34.988Z,31.14
2018-03-01T11:55:02.450Z,30.04
2018-03-01T11:57:29.906Z,29.74
2018-03-01T11:59:57.344Z,29.01
2018-03-01T12:02:25.708Z,28.05
2018-03-01T12:04:55.072Z,27.10
2018-03-01T12:07:22.567Z,26.41
2018-03-01T12:09:50.061Z,26.27
2018-03-01T12:12:17.569Z,27.01
2018-03-01T12:14:45.142Z,26.80
2018-03-01T12:17:12.657Z,26.41
2018-03-01T12:19:40.221Z,25.61
2018-03-01T12:22:07.690Z,25.93
2018-03-01T12:24:35.151Z,24.75
2018-03-01T12:27:02.665Z,24.71
2018-03-01T12:29:30.163Z,23.70
2018-03-01T12:31:58.413Z,22.90
2018-03-01T12:34:26.007Z,23.92
2018-03-01T12:36:53.495Z,23.97
2018-03-01T12:39:20.995Z,22.83
2018-03-01T12:41:48.477Z,22.72
2018-03-01T12:44:15.995Z,22.41
2018-03-01T12:46:43.495Z,22.64
2018-03-01T12:49:10.999Z,23.41
2018-03-01T12:51:38.509Z,23.49
2018-03-01T12:54:06.161Z,23.10
2018-03-01T12:56:33.623Z,23.05
2018-03-01T12:59:01.150Z,22.28
2018-03-01T13:01:28.639Z,22.82
2018-03-01T13:03:56.145Z,23.70
2018-03-01T13:06:23.635Z,23.08
2018-03-01T13:08:51.131Z,22.68
2018-03-01T13:11:18.591Z,24.03
2018-03-01T13:13:46.067Z,23.60
2018-03-01T13:16:13.581Z,22.71
2018-03-01T13:18:41.115Z,22.98
2018-03-01T13:21:08.617Z,22.99
2018-03-01T13:23:36.174Z,22.71
2018-03-01T13:26:03.659Z,22.85
2018-03-01T13:28:31.151Z,22.17
2018-03-01T13:30:58.655Z,21.10
2018-03-01T13:33:31.766Z,21.07
2018-03-01T13:36:01.203Z,21.31
2018-03-01T13:38:29.179Z,22.22
2018-03-01T13:40:56.723Z,22.34
2018-03-01T13:43:26.023Z,21.96
2018-03-01T13:45:53.467Z,21.71
2018-03-01T13:48:21.033Z,22.59
2018-03-01T13:50:48.493Z,21.97
2018-03-01T13:53:16.215Z,21.93
2018-03-01T13:55:43.671Z,21.28
2018-03-01T13:58:11.149Z,22.46
2018-03-01T14:00:38.705Z,21.96
2018-03-01T14:03:06.227Z,20.91
2018-03-01T14:05:33.709Z,21.64
2018-03-01T14:08:01.247Z,21.78
2018-03-01T14:10:29.607Z,22.63
2018-03-01T14:13:01.659Z,23.41
2018-03-01T14:15:30.181Z,24.76
2018-03-01T14:18:00.665Z,25.65
2018-03-01T14:20:31.638Z,25.99
2018-03-01T14:23:02.339Z,26.21
2018-03-01T14:25:33.177Z,25.69
2018-03-01T14:28:06.245Z,25.46
2018-03-01T14:30:35.378Z,26.35
2018-03-01T14:33:02.938Z,27.23
2018-03-01T14:35:30.443Z,27.87
2018-03-01T14:37:57.973Z,28.24
2018-03-01T14:40:25.523Z,29.47
2018-03-01T14:42:53.035Z,30.33
2018-03-01T14:45:20.620Z,31.33
2018-03-01T14:47:49.013Z,31.93
2018-03-01T14:50:17.356Z,32.39
2018-03-01T14:52:44.866Z,32.69
2018-03-01T14:55:13.362Z,32.73
2018-03-01T14:57:41.101Z,33.06
2018-03-01T15:00:08.619Z,33.67
2018-03-01T15:02:36.127Z,34.13
2018-03-01T15:05:03.646Z,34.25
2018-03-01T15:07:31.125Z,34.53
2018-03-01T15:09:58.669Z,34.34
2018-03-01T15:12:26.145Z,34.24
2018-03-01T15:14:53.608Z,34.10
2018-03-01T15:17:21.132Z,34.30
2018-03-01T15:19:48.683Z,34.70
2018-03-01T15:22:16.191Z,35.16
2018-03-01T15:24:43.678Z,35.04
2018-03-01T15:27:11.251Z,35.93
2018-03-01T15:29:38.770Z,35.88
2018-03-01T15:32:06.546Z,36.12
2018-03-01T15:34:34.027Z,36.17
2018-03-01T15:37:02.348Z,36.52
2018-03-01T15:39:29.896Z,36.54
2018-03-01T15:41:57.770Z,36.65
2018-03-01T15:44:25.330Z,36.95
2018-03-01T15:46:52.803Z,36.79
2018-03-01T15:49:23.269Z,36.78
2018-03-01T15:51:50.782Z,36.93
2018-03-01T15:54:18.480Z,36.95
2018-03-01T15:56:45.908Z,37.03
2018-03-01T15:59:13.575Z,37.22
2018-03-01T16:01:41.109Z,37.35
2018-03-01T16:04:08.594Z,37.74
2018-03-01T16:06:36.049Z,37.33
2018-03-01T16:09:03.553Z,37.27
2018-03-01T16:11:31.025Z,37.58
2018-03-01T16:13:58.520Z,37.69
2018-03-01T16:16:26.039Z,37.87
2018-03-01T16:18:53.519Z,38.21
2018-03-01T16:21:20.983Z,38.21
2018-03-01T16:23:48.440Z,38.16
2018-03-01T16:26:15.887Z,38.36
2018-03-01T16:28:43.538Z,38.58
2018-03-01T16:31:11.015Z,38.49
2018-03-01T16:33:38.551Z,38.71
2018-03-01T16:36:06.053Z,39.22
2018-03-01T16:38:33.542Z,39.13
2018-03-01T16:41:01.046Z,39.05
2018-03-01T16:43:28.525Z,39.17
2018-03-01T16:45:55.993Z,39.08
2018-03-01T16:48:23.447Z,39.55
2018-03-01T16:50:50.929Z,39.58
2018-03-01T16:53:19.309Z,39.72
2018-03-01T16:55:46.807Z,39.65
2018-03-01T16:58:14.373Z,39.78
2018-03-01T17:00:41.858Z,39.86
2018-03-01T17:03:09.346Z,39.66
2018-03-01T17:05:36.900Z,40.11
2018-03-01T17:08:04.395Z,39.98
2018-03-01T17:10:31.925Z,40.12
2018-03-01T17:12:59.384Z,40.16
2018-03-01T17:15:26.912Z,40.30
2018-03-01T17:17:54.378Z,40.31
2018-03-01T17:20:21.911Z,40.27
2018-03-01T17:22:49.367Z,40.69
2018-03-01T17:25:16.876Z,40.87
2018-03-01T17:27:44.636Z,41.00
2018-03-01T17:30:13.910Z,40.81
2018-03-01T17:32:44.292Z,40.96
2018-03-01T17:35:12.678Z,40.95
2018-03-01T17:37:40.174Z,40.69
2018-03-01T17:40:07.708Z,41.18
2018-03-01T17:42:35.226Z,55.46
2018-03-01T17:45:02.723Z,51.70
2018-03-01T17:47:31.850Z,40.78
2018-03-01T17:49:59.380Z,40.36
2018-03-01T17:52:26.861Z,40.35
2018-03-01T17:54:54.322Z,40.63
2018-03-01T17:57:21.869Z,40.78
2018-03-01T17:59:49.344Z,41.38
2018-03-01T18:02:16.844Z,41.54
2018-03-01T18:04:44.440Z,41.41
2018-03-01T18:07:11.967Z,41.44
2018-03-01T18:09:39.466Z,41.58
2018-03-01T18:12:07.042Z,41.67
2018-03-01T18:14:34.569Z,41.94
2018-03-01T18:17:02.063Z,42.29
2018-03-01T18:19:29.586Z,42.17
2018-03-01T18:21:57.131Z,42.31
2018-03-01T18:24:25.762Z,42.18
2018-03-01T18:26:53.362Z,42.51
2018-03-01T18:29:20.908Z,42.64
2018-03-01T18:31:48.385Z,42.90
2018-03-01T18:34:15.882Z,42.76
2018-03-01T18:36:43.384Z,42.75
2018-03-01T18:39:10.918Z,42.69
2018-03-01T18:41:38.394Z,42.77
2018-03-01T18:44:05.861Z,42.56
2018-03-01T18:46:34.273Z,42.90
2018-03-01T18:49:01.834Z,43.28
2018-03-01T18:51:29.322Z,43.42
2018-03-01T18:53:56.788Z,43.74
2018-03-01T18:56:24.405Z,43.82
2018-03-01T18:58:51.907Z,43.75
2018-03-01T19:01:19.368Z,43.70
2018-03-01T19:03:46.862Z,43.82
2018-03-01T19:06:14.409Z,44.09
2018-03-01T19:08:41.878Z,44.08
2018-03-01T19:11:09.354Z,44.15
2018-03-01T19:13:36.871Z,44.08
2018-03-01T19:16:04.369Z,44.28
2018-03-01T19:18:31.856Z,44.32
2018-03-01T19:20:59.399Z,44.41
2018-03-01T19:23:26.889Z,44.59
2018-03-01T19:25:54.376Z,44.80
2018-03-01T19:28:21.859Z,44.96
2018-03-01T19:30:49.391Z,45.06
2018-03-01T19:33:16.938Z,44.70
2018-03-01T19:35:44.440Z,45.01
2018-03-01T19:38:11.960Z,45.21
2018-03-01T19:40:39.424Z,45.46
2018-03-01T19:43:06.962Z,45.42
2018-03-01T19:45:35.271Z,45.40
2018-03-01T19:48:03.329Z,45.38
2018-03-01T19:50:30.815Z,45.41
2018-03-01T19:52:58.297Z,45.33
2018-03-01T19:55:25.806Z,45.75
2018-03-01T19:57:53.326Z,45.85
2018-03-01T20:00:20.829Z,45.95
2018-03-01T20:02:48.306Z,45.98
2018-03-01T20:05:15.803Z,46.34
2018-03-01T20:07:43.446Z,46.55
2018-03-01T20:10:10.908Z,46.44
2018-03-01T20:12:38.408Z,46.39
2018-03-01T20:15:05.974Z,46.14
2018-03-01T20:17:33.502Z,46.49
2018-03-01T20:20:01.022Z,46.41
2018-03-01T20:22:29.042Z,46.50
2018-03-01T20:24:56.573Z,46.52
2018-03-01T20:27:24.025Z,46.38
2018-03-01T20:29:51.553Z,46.38
2018-03-01T20:32:19.007Z,46.74
2018-03-01T20:34:46.477Z,46.70
2018-03-01T20:37:13.966Z,46.78
2018-03-01T20:39:41.478Z,46.63
2018-03-01T20:42:08.992Z,46.77
2018-03-01T20:44:36.445Z,46.69
2018-03-01T20:47:04.283Z,46.76
2018-03-01T20:49:31.753Z,47.17
2018-03-01T20:51:59.538Z,47.03
2018-03-01T20:54:32.117Z,47.29
2018-03-01T20:56:59.594Z,47.18
2018-03-01T20:59:27.087Z,47.46
2018-03-01T21:01:54.633Z,47.95
2018-03-01T21:04:22.305Z,48.04
2018-03-01T21:06:49.869Z,48.16
2018-03-01T21:09:17.355Z,48.20
2018-03-01T21:11:44.878Z,48.34
2018-03-01T21:14:12.395Z,48.24
2018-03-01T21:16:39.968Z,48.50
2018-03-01T21:19:07.423Z,48.52
2018-03-01T21:21:34.927Z,48.65
2018-03-01T21:24:02.555Z,48.79
2018-03-01T21:26:30.612Z,49.09
2018-03-01T21:28:58.890Z,49.29
2018-03-01T21:31:26.504Z,49.14
2018-03-01T21:33:54.119Z,49.19
2018-03-01T21:36:21.753Z,49.32
2018-03-01T21:38:49.279Z,49.69
2018-03-01T21:41:16.792Z,49.71
2018-03-01T21:43:44.269Z,49.66
2018-03-01T21:46:14.799Z,49.32
2018-03-01T21:48:42.357Z,49.84
2018-03-01T21:51:09.837Z,49.77
2018-03-01T21:53:37.468Z,49.79
2018-03-01T21:56:05.018Z,50.33
2018-03-01T21:58:32.495Z,50.25
2018-03-01T22:00:59.974Z,50.48
2018-03-01T22:03:28.573Z,50.51
2018-03-01T22:05:56.092Z,50.45
2018-03-01T22:08:23.736Z,50.59
2018-03-01T22:10:51.229Z,50.79
2018-03-01T22:13:18.765Z,50.73
2018-03-01T22:15:46.341Z,50.84
2018-03-01T22:18:13.771Z,50.79
2018-03-01T22:20:41.351Z,50.50
2018-03-01T22:23:08.841Z,50.52
2018-03-01T22:25:36.303Z,50.63
2018-03-01T22:28:03.779Z,50.54
2018-03-01T22:30:31.405Z,50.81
2018-03-01T22:32:58.888Z,50.80
2018-03-01T22:35:26.323Z,50.99
2018-03-01T22:37:53.817Z,50.89
2018-03-01T22:40:21.254Z,51.11
2018-03-01T22:42:48.712Z,51.32
2018-03-01T22:45:16.165Z,57.32
2018-03-01T22:47:43.876Z,59.33
2018-03-01T22:50:11.327Z,53.33
2018-03-01T22:52:38.811Z,50.76
2018-03-01T22:55:11.377Z,50.41
2018-03-01T22:57:38.879Z,50.55
2018-03-01T23:00:06.367Z,50.73
2018-03-01T23:02:33.835Z,50.65
2018-03-01T23:05:01.311Z,51.16
2018-03-01T23:07:28.753Z,51.49
2018-03-01T23:09:56.249Z,51.70
2018-03-01T23:12:23.719Z,51.97
2018-03-01T23:14:51.200Z,51.96
2018-03-01T23:17:18.673Z,52.14
2018-03-01T23:19:46.119Z,51.97
2018-03-01T23:22:13.633Z,59.09
2018-03-01T23:24:41.165Z,55.10
2018-03-01T23:27:08.645Z,54.78
2018-03-01T23:29:36.123Z,52.36
2018-03-01T23:32:03.607Z,51.77
2018-03-01T23:34:31.115Z,51.53
2018-03-01T23:36:59.175Z,51.64
2018-03-01T23:39:26.673Z,52.02
2018-03-01T23:41:54.131Z,52.15
2018-03-01T23:44:21.601Z,51.98
2018-03-01T23:46:49.123Z,51.95
2018-03-01T23:49:16.575Z,52.50
2018-03-01T23:51:44.035Z,52.34
2018-03-01T23:54:11.506Z,52.54
2018-03-01T23:56:39.027Z,52.99
2018-03-01T23:59:06.548Z,52.91
